SBI007 USRR-USTR
Flight info
| Callsign | SBI007 |
|---|---|
| Flight time | 0h 24m |
| Altitude | 34000 |
| Route | K0796F340 ANIKI1W ANIKI T797 NERUG NERUG1P |
| Aircraft | A320/M-SDE3FGHIRWY/LB1 |
Departure
| Time | 2026-05-05 16:45 |
|---|---|
| Airport | Surgut International Airport (USRR) |
Arrival
| Time | 2026-05-05 17:10 |
|---|---|
| Airport | Roshchino International Airport (USTR) |
| Time | Latitude | Longitude | Altitude | Speed | Heading |
|---|---|---|---|---|---|
| 2026-05-05 16:36 | 61.34141 | 73.41206 | 208 ft | 0 kts | 270° |
| 2026-05-05 16:43 | 61.34170 | 73.41179 | 213 ft | 12 kts | 39° |
| 2026-05-05 16:43 | 61.34185 | 73.41455 | 212 ft | 26 kts | 89° |
| 2026-05-05 16:43 | 61.34188 | 73.41907 | 208 ft | 34 kts | 89° |
| 2026-05-05 16:43 | 61.34192 | 73.42372 | 207 ft | 25 kts | 84° |
| 2026-05-05 16:44 | 61.34316 | 73.42595 | 210 ft | 27 kts | 31° |
| 2026-05-05 16:44 | 61.34395 | 73.42567 | 213 ft | 11 kts | 270° |
| 2026-05-05 16:44 | 61.34395 | 73.42550 | 202 ft | 0 kts | 269° |
| 2026-05-05 16:45 | 61.34393 | 73.42123 | 202 ft | 68 kts | 270° |
| 2026-05-05 16:45 | 61.34391 | 73.41239 | 214 ft | 111 kts | 269° |
| 2026-05-05 16:45 | 61.34386 | 73.38450 | 366 ft | 164 kts | 270° |
| 2026-05-05 16:45 | 61.34389 | 73.36903 | 934 ft | 161 kts | 269° |
| 2026-05-05 16:46 | 61.34222 | 73.34633 | 1642 ft | 162 kts | 242° |
| 2026-05-05 16:46 | 61.33441 | 73.31625 | 2179 ft | 192 kts | 243° |
| 2026-05-05 16:46 | 61.32832 | 73.28995 | 2510 ft | 217 kts | 244° |
| 2026-05-05 16:46 | 61.32160 | 73.25996 | 2964 ft | 238 kts | 244° |
| 2026-05-05 16:47 | 61.31450 | 73.22808 | 3866 ft | 245 kts | 244° |
| 2026-05-05 16:47 | 61.30729 | 73.19569 | 4823 ft | 248 kts | 244° |
| 2026-05-05 16:47 | 61.30248 | 73.17406 | 5433 ft | 250 kts | 244° |
| 2026-05-05 16:47 | 61.29260 | 73.12991 | 6643 ft | 254 kts | 245° |
| 2026-05-05 16:48 | 61.28764 | 73.10777 | 7198 ft | 256 kts | 245° |
| 2026-05-05 16:48 | 61.28007 | 73.07392 | 8012 ft | 261 kts | 245° |
| 2026-05-05 16:48 | 61.26983 | 73.02817 | 9099 ft | 266 kts | 245° |
| 2026-05-05 16:48 | 61.26192 | 72.99303 | 9884 ft | 271 kts | 245° |
| 2026-05-05 16:49 | 61.25646 | 72.96883 | 10283 ft | 279 kts | 245° |
| 2026-05-05 16:49 | 61.24801 | 72.93146 | 10511 ft | 302 kts | 245° |
| 2026-05-05 16:49 | 61.23871 | 72.89053 | 10745 ft | 323 kts | 245° |
| 2026-05-05 16:49 | 61.22561 | 72.83296 | 11502 ft | 333 kts | 245° |
| 2026-05-05 16:50 | 61.21906 | 72.80406 | 11972 ft | 336 kts | 245° |
| 2026-05-05 16:50 | 61.20904 | 72.75997 | 12671 ft | 339 kts | 245° |
| 2026-05-05 16:50 | 61.19889 | 72.71554 | 13366 ft | 343 kts | 245° |
| 2026-05-05 16:50 | 61.18522 | 72.65598 | 14222 ft | 348 kts | 245° |
| 2026-05-05 16:51 | 61.17818 | 72.62534 | 14643 ft | 350 kts | 245° |
| 2026-05-05 16:51 | 61.16766 | 72.57967 | 15254 ft | 353 kts | 245° |
| 2026-05-05 16:51 | 61.15700 | 72.53355 | 15877 ft | 356 kts | 244° |
| 2026-05-05 16:51 | 61.14638 | 72.48769 | 16470 ft | 359 kts | 244° |
| 2026-05-05 16:52 | 61.13556 | 72.44079 | 17063 ft | 363 kts | 244° |
| 2026-05-05 16:52 | 61.12463 | 72.39345 | 17647 ft | 366 kts | 244° |
| 2026-05-05 16:52 | 61.09824 | 72.27976 | 18911 ft | 373 kts | 244° |
| 2026-05-05 16:52 | 61.05232 | 72.08400 | 20889 ft | 384 kts | 244° |
| 2026-05-05 16:53 | 61.00356 | 71.88500 | 22728 ft | 395 kts | 236° |
| 2026-05-05 16:53 | 60.92150 | 71.73123 | 24371 ft | 405 kts | 221° |
| 2026-05-05 16:53 | 60.83413 | 71.58165 | 25788 ft | 412 kts | 221° |
| 2026-05-05 16:53 | 60.74623 | 71.43216 | 27133 ft | 420 kts | 221° |
| 2026-05-05 16:54 | 60.65528 | 71.27885 | 28377 ft | 429 kts | 220° |
| 2026-05-05 16:54 | 60.56225 | 71.12328 | 29516 ft | 436 kts | 220° |
| 2026-05-05 16:54 | 60.46802 | 70.96680 | 30763 ft | 437 kts | 220° |
| 2026-05-05 16:54 | 60.37380 | 70.81159 | 31996 ft | 437 kts | 220° |
| 2026-05-05 16:55 | 60.27934 | 70.65738 | 33194 ft | 436 kts | 220° |
| 2026-05-05 16:55 | 60.18456 | 70.50377 | 33869 ft | 440 kts | 220° |
| 2026-05-05 16:55 | 59.99473 | 70.19927 | 33996 ft | 438 kts | 220° |
| 2026-05-05 16:56 | 59.90033 | 70.04963 | 33849 ft | 443 kts | 220° |
| 2026-05-05 16:56 | 59.80439 | 69.89868 | 33807 ft | 438 kts | 220° |
| 2026-05-05 16:56 | 59.70856 | 69.74898 | 33981 ft | 435 kts | 220° |
| 2026-05-05 16:56 | 59.61261 | 69.60015 | 33948 ft | 442 kts | 219° |
| 2026-05-05 16:57 | 59.51592 | 69.45159 | 33798 ft | 441 kts | 219° |
| 2026-05-05 16:57 | 59.41972 | 69.30460 | 33918 ft | 433 kts | 219° |
| 2026-05-05 16:57 | 59.22769 | 69.01412 | 33915 ft | 436 kts | 220° |
| 2026-05-05 16:58 | 59.04911 | 68.70300 | 33913 ft | 432 kts | 227° |
| 2026-05-05 16:58 | 58.87748 | 68.37691 | 33932 ft | 431 kts | 227° |
| 2026-05-05 16:59 | 58.70581 | 68.05464 | 33904 ft | 430 kts | 227° |
| 2026-05-05 16:59 | 58.53344 | 67.73633 | 33901 ft | 429 kts | 227° |
| 2026-05-05 17:00 | 58.36095 | 67.42189 | 33907 ft | 428 kts | 227° |
| 2026-05-05 17:00 | 58.27419 | 67.26546 | 33073 ft | 428 kts | 226° |
| 2026-05-05 17:00 | 58.18643 | 67.10810 | 29767 ft | 443 kts | 226° |
| 2026-05-05 17:01 | 58.09914 | 66.95325 | 27260 ft | 419 kts | 225° |
| 2026-05-05 17:01 | 58.01607 | 66.80656 | 24994 ft | 401 kts | 225° |
| 2026-05-05 17:01 | 57.93638 | 66.66628 | 22880 ft | 383 kts | 225° |
| 2026-05-05 17:01 | 57.86049 | 66.53353 | 21087 ft | 362 kts | 225° |
| 2026-05-05 17:02 | 57.78854 | 66.40873 | 19495 ft | 346 kts | 225° |
| 2026-05-05 17:02 | 57.71882 | 66.28782 | 17794 ft | 338 kts | 225° |
| 2026-05-05 17:02 | 57.65179 | 66.17209 | 16134 ft | 328 kts | 226° |
| 2026-05-05 17:02 | 57.58695 | 66.05471 | 14453 ft | 322 kts | 226° |
| 2026-05-05 17:03 | 57.52289 | 65.93968 | 12697 ft | 316 kts | 226° |
| 2026-05-05 17:03 | 57.44499 | 65.86961 | 10939 ft | 320 kts | 194° |
| 2026-05-05 17:03 | 57.36080 | 65.83833 | 9948 ft | 290 kts | 195° |
| 2026-05-05 17:03 | 57.28453 | 65.80990 | 9241 ft | 282 kts | 195° |
| 2026-05-05 17:04 | 57.20847 | 65.78182 | 7698 ft | 277 kts | 194° |
| 2026-05-05 17:04 | 57.13757 | 65.75596 | 6310 ft | 272 kts | 194° |
| 2026-05-05 17:04 | 57.11905 | 65.74923 | 5930 ft | 270 kts | 194° |
| 2026-05-05 17:04 | 57.10073 | 65.74260 | 5572 ft | 268 kts | 194° |
| 2026-05-05 17:05 | 57.08349 | 65.73258 | 5207 ft | 261 kts | 214° |
| 2026-05-05 17:05 | 57.07179 | 65.70824 | 4861 ft | 256 kts | 248° |
| 2026-05-05 17:05 | 57.06921 | 65.67635 | 4548 ft | 252 kts | 269° |
| 2026-05-05 17:05 | 57.06923 | 65.64448 | 4248 ft | 249 kts | 269° |
| 2026-05-05 17:06 | 57.06931 | 65.61266 | 3897 ft | 249 kts | 269° |
| 2026-05-05 17:06 | 57.06940 | 65.58094 | 3548 ft | 247 kts | 269° |
| 2026-05-05 17:06 | 57.07166 | 65.55036 | 3273 ft | 236 kts | 290° |
| 2026-05-05 17:06 | 57.08038 | 65.52603 | 3032 ft | 224 kts | 312° |
| 2026-05-05 17:07 | 57.09121 | 65.50615 | 2760 ft | 217 kts | 313° |
| 2026-05-05 17:07 | 57.10191 | 65.48650 | 2438 ft | 215 kts | 313° |
| 2026-05-05 17:07 | 57.11225 | 65.46745 | 2163 ft | 211 kts | 313° |
| 2026-05-05 17:07 | 57.12236 | 65.44879 | 1884 ft | 199 kts | 313° |
| 2026-05-05 17:08 | 57.13193 | 65.43111 | 1626 ft | 188 kts | 312° |
| 2026-05-05 17:08 | 57.14071 | 65.41488 | 1379 ft | 171 kts | 313° |
| 2026-05-05 17:08 | 57.14878 | 65.39992 | 1115 ft | 159 kts | 313° |
| 2026-05-05 17:08 | 57.15645 | 65.38573 | 850 ft | 154 kts | 313° |
| 2026-05-05 17:09 | 57.16384 | 65.37184 | 631 ft | 151 kts | 313° |
| 2026-05-05 17:09 | 57.17125 | 65.35822 | 416 ft | 150 kts | 313° |
| 2026-05-05 17:09 | 57.17826 | 65.34508 | 337 ft | 133 kts | 315° |
| 2026-05-05 17:09 | 57.18305 | 65.33634 | 337 ft | 58 kts | 313° |
| 2026-05-05 17:10 | 57.18486 | 65.33283 | 333 ft | 12 kts | 316° |
| 2026-05-05 17:10 | 57.18549 | 65.33243 | 334 ft | 9 kts | 18° |
| 2026-05-05 17:10 | 57.18586 | 65.33299 | 338 ft | 7 kts | 44° |
| 2026-05-05 17:10 | 57.18617 | 65.33379 | 336 ft | 7 kts | 72° |
| 2026-05-05 17:11 | 57.18620 | 65.33451 | 340 ft | 5 kts | 90° |